Time;durP1;ratioP1;P1;durP2;ratioP2;P2;SDS_P1;SDS_P2;PMS_P1;PMS_P2;Temp;Humidity;BMP_temperature;BMP_pressure;BME280_temperature;BME280_humidity;BME280_pressure;Samples;Min_cycle;Max_cycle;Signal;HPM_P1;HPM_P2
2021/05/12 00:00:10;;;;;;;33.73;32.23;;;12.80;99.90;;;;;;4973276;28;20459;-71
2021/05/12 00:02:36;;;;;;;34.40;32.80;;;12.70;99.90;;;;;;4973594;28;20456;-71
2021/05/12 00:05:03;;;;;;;34.40;32.80;;;12.80;99.90;;;;;;4973518;28;20448;-70
2021/05/12 00:07:29;;;;;;;34.50;32.80;;;12.80;99.90;;;;;;4973406;28;20452;-71
2021/05/12 00:09:56;;;;;;;34.20;32.70;;;12.80;99.90;;;;;;4972527;28;20455;-71
2021/05/12 00:12:22;;;;;;;33.93;32.33;;;12.90;99.90;;;;;;4973364;28;20455;-71
2021/05/12 00:14:49;;;;;;;33.87;32.27;;;12.80;99.90;;;;;;4973261;28;21019;-71
2021/05/12 00:17:18;;;;;;;33.33;31.83;;;12.70;99.90;;;;;;4973333;28;20463;-71
2021/05/12 00:19:52;;;;;;;34.03;32.43;;;12.60;99.90;;;;;;4973059;28;20459;-71
2021/05/12 00:22:30;;;;;;;33.23;31.63;;;12.60;99.90;;;;;;4973329;28;20455;-71
2021/05/12 00:24:56;;;;;;;33.93;32.23;;;12.70;99.90;;;;;;4973009;28;20462;-71
2021/05/12 00:27:22;;;;;;;34.17;32.47;;;12.60;99.90;;;;;;4973028;28;20470;-71
2021/05/12 00:29:49;;;;;;;35.20;33.40;;;12.70;99.90;;;;;;4972932;28;20475;-71
2021/05/12 00:32:16;;;;;;;34.30;32.70;;;12.90;99.90;;;;;;4973097;28;20448;-71
2021/05/12 00:34:42;;;;;;;34.13;32.53;;;12.90;99.90;;;;;;4972957;28;20459;-71
2021/05/12 00:37:08;;;;;;;34.53;32.83;;;12.90;99.90;;;;;;4972931;28;20848;-71
2021/05/12 00:39:34;;;;;;;33.17;31.60;;;12.90;99.90;;;;;;4972982;28;20456;-71
2021/05/12 00:42:00;;;;;;;34.10;32.50;;;12.90;99.90;;;;;;4972593;28;20592;-70
2021/05/12 00:44:27;;;;;;;35.30;33.43;;;13.00;99.90;;;;;;4972639;28;20532;-70
2021/05/12 00:46:54;;;;;;;33.30;31.70;;;13.00;99.90;;;;;;4991753;28;20491;-71
2021/05/12 00:49:22;;;;;;;34.43;32.43;;;12.90;99.90;;;;;;4992209;28;20451;-70
2021/05/12 00:51:49;;;;;;;35.10;33.40;;;13.00;99.90;;;;;;4992029;28;20462;-70
2021/05/12 00:54:15;;;;;;;35.47;33.47;;;12.90;99.90;;;;;;4992328;28;20443;-70
2021/05/12 00:56:43;;;;;;;34.37;32.60;;;12.80;99.90;;;;;;4991804;28;20443;-69
2021/05/12 00:59:10;;;;;;;34.40;32.70;;;12.80;99.90;;;;;;4991390;28;20469;-69
2021/05/12 01:01:37;;;;;;;35.67;33.83;;;12.80;99.90;;;;;;4991647;28;20842;-70
2021/05/12 01:04:07;;;;;;;34.57;32.67;;;12.70;99.90;;;;;;4992023;28;20455;-69
2021/05/12 01:06:35;;;;;;;34.60;32.90;;;12.70;99.90;;;;;;4991687;28;20617;-69
2021/05/12 01:09:02;;;;;;;35.03;33.20;;;12.70;99.90;;;;;;4991732;28;20450;-69
2021/05/12 01:11:28;;;;;;;34.90;33.10;;;12.60;99.90;;;;;;4991168;28;20458;-69
2021/05/12 01:13:55;;;;;;;34.53;32.63;;;12.50;99.90;;;;;;4991312;28;20505;-69
2021/05/12 01:16:22;;;;;;;33.70;32.10;;;12.50;99.90;;;;;;4991418;28;20549;-69
2021/05/12 01:18:48;;;;;;;33.63;31.93;;;12.40;99.90;;;;;;4991544;28;20458;-69
2021/05/12 01:21:16;;;;;;;35.10;32.87;;;12.40;99.90;;;;;;4991306;28;20462;-69
2021/05/12 01:23:44;;;;;;;33.30;31.80;;;12.40;99.90;;;;;;4990900;28;20513;-69
2021/05/12 01:26:13;;;;;;;32.93;31.30;;;12.40;99.90;;;;;;4991240;28;20490;-69
2021/05/12 01:28:42;;;;;;;32.50;31.00;;;12.30;99.90;;;;;;4991109;28;21065;-70
2021/05/12 01:31:11;;;;;;;32.23;30.47;;;12.20;99.90;;;;;;4991190;28;20851;-69
2021/05/12 01:33:38;;;;;;;33.83;32.13;;;12.20;99.90;;;;;;4991008;28;20501;-69
2021/05/12 01:36:06;;;;;;;33.83;31.73;;;12.20;99.90;;;;;;4991216;28;20964;-69
2021/05/12 01:38:34;;;;;;;33.80;32.10;;;12.20;99.90;;;;;;4991351;28;20505;-70
2021/05/12 01:41:02;;;;;;;33.80;31.80;;;12.10;99.90;;;;;;4991368;28;20450;-70
2021/05/12 01:43:28;;;;;;;33.37;31.67;;;12.10;99.90;;;;;;4990726;28;20466;-70
2021/05/12 01:45:55;;;;;;;33.20;31.60;;;12.20;99.90;;;;;;4979658;28;20487;-70
2021/05/12 01:48:21;;;;;;;32.63;31.03;;;12.10;99.90;;;;;;4971506;28;20475;-70
2021/05/12 01:50:48;;;;;;;34.00;31.80;;;12.10;99.90;;;;;;4971981;28;20831;-70
2021/05/12 01:53:14;;;;;;;32.23;30.73;;;12.10;99.90;;;;;;4972001;28;20455;-70
2021/05/12 01:55:41;;;;;;;33.77;31.93;;;12.00;99.90;;;;;;4971793;28;20451;-70
2021/05/12 01:58:08;;;;;;;34.10;32.27;;;12.00;99.90;;;;;;4971321;28;20456;-70
2021/05/12 02:00:38;;;;;;;33.17;31.47;;;12.00;99.90;;;;;;4971730;28;20448;-70
2021/05/12 02:03:07;;;;;;;32.80;31.10;;;12.00;99.90;;;;;;4972152;28;20448;-70
2021/05/12 02:05:34;;;;;;;33.83;32.00;;;12.00;99.90;;;;;;4971964;28;20490;-69
2021/05/12 02:08:01;;;;;;;34.00;32.17;;;12.00;99.90;;;;;;4971573;28;20510;-69
2021/05/12 02:10:28;;;;;;;34.47;32.67;;;11.90;99.90;;;;;;4971547;28;20447;-69
2021/05/12 03:33:10;;;;;;;36.27;34.47;;;11.80;99.90;;;;;;5029840;28;20982;-71
2021/05/12 03:35:38;;;;;;;36.27;34.27;;;11.80;99.90;;;;;;5028512;28;20460;-69
2021/05/12 03:38:05;;;;;;;37.57;35.27;;;11.90;99.90;;;;;;5013375;28;20461;-69
2021/05/12 03:40:32;;;;;;;38.20;35.97;;;11.80;99.90;;;;;;5012948;28;20713;-69
2021/05/12 03:42:59;;;;;;;36.70;34.47;;;11.90;99.90;;;;;;5012760;28;20453;-69
2021/05/12 03:45:25;;;;;;;37.20;35.03;;;11.90;99.90;;;;;;5011597;28;20802;-69
2021/05/12 03:47:52;;;;;;;37.50;35.30;;;11.90;99.90;;;;;;5012689;28;20445;-69
2021/05/12 03:50:22;;;;;;;34.60;32.60;;;12.00;99.90;;;;;;5012578;28;20461;-70
2021/05/12 03:52:48;;;;;;;35.23;33.13;;;11.90;99.90;;;;;;5012706;28;20460;-69
2021/05/12 03:55:15;;;;;;;33.87;31.80;;;12.00;99.90;;;;;;5012487;28;20512;-70
2021/05/12 03:57:43;;;;;;;31.80;29.77;;;12.00;99.90;;;;;;5012464;28;20449;-69
2021/05/12 04:00:11;;;;;;;32.40;30.27;;;12.10;99.90;;;;;;5011936;28;20954;-70
2021/05/12 04:02:37;;;;;;;31.20;29.23;;;12.10;99.90;;;;;;5012489;28;20497;-70
2021/05/12 04:05:05;;;;;;;33.10;30.93;;;12.10;99.90;;;;;;5012526;28;20821;-69
2021/05/12 04:07:32;;;;;;;34.50;32.30;;;12.10;99.90;;;;;;5012567;28;20881;-70
2021/05/12 04:09:58;;;;;;;32.20;30.50;;;12.10;99.90;;;;;;5012084;28;20975;-69
2021/05/12 04:12:24;;;;;;;34.33;32.10;;;12.10;99.90;;;;;;5011834;28;20445;-71
2021/05/12 04:14:50;;;;;;;33.10;31.30;;;12.10;99.90;;;;;;5012086;28;20477;-70
2021/05/12 04:17:17;;;;;;;32.63;30.67;;;12.10;99.90;;;;;;5011741;28;20469;-70
2021/05/12 04:19:44;;;;;;;31.13;29.47;;;12.10;99.90;;;;;;5011617;28;20939;-70
2021/05/12 04:22:10;;;;;;;30.73;28.80;;;12.20;99.90;;;;;;5011931;28;20457;-70
2021/05/12 04:24:37;;;;;;;32.17;30.17;;;12.20;99.90;;;;;;5012064;28;20465;-70
2021/05/12 04:27:04;;;;;;;30.53;28.53;;;12.20;99.90;;;;;;5011846;28;20842;-70
2021/05/12 04:29:30;;;;;;;32.53;29.53;;;12.20;99.90;;;;;;5011537;28;20457;-71
2021/05/12 04:31:56;;;;;;;30.00;28.13;;;12.20;99.90;;;;;;5011402;28;20478;-71
2021/05/12 04:34:22;;;;;;;30.73;28.43;;;12.20;99.90;;;;;;5011523;28;20464;-70
2021/05/12 04:36:49;;;;;;;31.27;28.90;;;12.20;99.90;;;;;;5011780;28;20504;-70
2021/05/12 04:39:15;;;;;;;28.37;26.23;;;12.40;99.90;;;;;;5011707;28;20450;-71
2021/05/12 04:41:42;;;;;;;29.60;27.40;;;12.40;99.90;;;;;;5011503;28;20454;-70
2021/05/12 04:44:08;;;;;;;28.10;26.10;;;12.30;99.90;;;;;;5011667;28;20967;-70
2021/05/12 04:46:35;;;;;;;24.70;23.10;;;12.40;99.90;;;;;;5011642;28;20572;-70
2021/05/12 04:49:05;;;;;;;23.83;22.27;;;12.40;99.90;;;;;;5011279;28;20573;-70
2021/05/12 04:51:33;;;;;;;24.50;22.60;;;12.40;99.90;;;;;;5011476;28;20545;-69
2021/05/12 04:53:59;;;;;;;23.50;22.10;;;12.40;99.90;;;;;;5011448;28;20870;-71
2021/05/12 04:56:26;;;;;;;22.27;20.97;;;12.40;99.90;;;;;;5010748;28;20449;-72
2021/05/12 04:58:53;;;;;;;23.17;21.40;;;12.50;99.90;;;;;;5011202;28;20457;-70
2021/05/12 05:01:19;;;;;;;23.33;21.43;;;12.50;99.90;;;;;;5011336;28;20457;-73
2021/05/12 05:03:45;;;;;;;20.43;19.03;;;12.50;99.90;;;;;;5011249;28;20458;-74
2021/05/12 05:06:12;;;;;;;19.37;18.17;;;12.50;99.90;;;;;;5010852;28;20489;-75
2021/05/12 05:08:38;;;;;;;20.60;19.30;;;12.60;99.90;;;;;;5010945;28;20472;-74
2021/05/12 05:11:05;;;;;;;20.13;18.93;;;12.60;99.90;;;;;;5010856;28;20453;-75
2021/05/12 05:13:31;;;;;;;19.80;18.70;;;12.60;99.90;;;;;;5010776;28;20446;-76
2021/05/12 05:15:59;;;;;;;19.73;18.53;;;12.60;99.90;;;;;;5010562;28;20461;-75
2021/05/12 05:18:25;;;;;;;20.10;18.70;;;12.60;99.90;;;;;;5008640;28;20452;-75
2021/05/12 05:21:27;;;;;;;18.27;17.07;;;12.70;99.90;;;;;;5010823;28;20454;-75
2021/05/12 05:23:54;;;;;;;18.90;17.80;;;12.70;99.90;;;;;;4966232;28;20503;-75
2021/05/12 05:26:20;;;;;;;18.63;17.60;;;12.60;99.90;;;;;;5010732;28;20500;-74
2021/05/12 05:28:46;;;;;;;17.17;16.23;;;12.50;99.90;;;;;;5010969;28;20461;-75
2021/05/12 05:31:13;;;;;;;17.50;16.27;;;12.60;99.90;;;;;;5010434;28;21011;-75
2021/05/12 05:33:39;;;;;;;18.00;16.90;;;12.60;99.90;;;;;;5010791;28;20457;-75
2021/05/12 05:36:06;;;;;;;18.53;17.13;;;12.60;99.90;;;;;;5011129;28;20480;-76
2021/05/12 05:38:32;;;;;;;29.07;26.90;;;12.70;99.90;;;;;;5010537;28;20453;-74
2021/05/12 05:40:58;;;;;;;32.43;29.83;;;12.70;99.90;;;;;;5010332;28;20446;-75
2021/05/12 05:43:26;;;;;;;38.00;34.77;;;12.80;99.90;;;;;;5010493;28;20775;-75
2021/05/12 05:45:52;;;;;;;30.47;27.53;;;12.70;99.90;;;;;;5010627;28;20485;-75
2021/05/12 05:48:19;;;;;;;23.50;21.60;;;12.80;99.90;;;;;;5010835;28;20556;-75
2021/05/12 05:50:46;;;;;;;22.57;20.83;;;12.90;99.90;;;;;;5010194;28;20465;-75
2021/05/12 05:53:12;;;;;;;19.33;18.13;;;12.90;99.90;;;;;;5010243;28;21211;-75
2021/05/12 05:55:38;;;;;;;17.83;16.50;;;13.00;99.90;;;;;;5010486;28;20478;-75
2021/05/12 05:58:04;;;;;;;16.83;15.90;;;13.00;99.90;;;;;;5028124;28;20448;-75
2021/05/12 06:00:30;;;;;;;15.23;14.43;;;13.00;99.90;;;;;;5039674;28;20499;-75
2021/05/12 06:02:57;;;;;;;15.77;14.87;;;13.00;99.90;;;;;;5039122;28;20445;-75
2021/05/12 06:05:24;;;;;;;16.23;15.43;;;13.10;99.90;;;;;;5036831;28;20453;-75
2021/05/12 06:07:50;;;;;;;16.43;15.10;;;13.20;99.90;;;;;;5037469;28;20456;-75
2021/05/12 06:10:16;;;;;;;16.00;15.10;;;13.20;99.90;;;;;;5034136;28;20464;-74
2021/05/12 06:12:42;;;;;;;15.87;14.87;;;13.20;99.90;;;;;;5028216;28;20446;-74
2021/05/12 06:15:09;;;;;;;16.37;15.03;;;13.10;99.90;;;;;;5014571;28;20460;-73
2021/05/12 06:17:35;;;;;;;15.10;14.40;;;13.20;99.90;;;;;;5014633;28;20454;-73
2021/05/12 06:20:02;;;;;;;15.40;14.50;;;13.10;99.90;;;;;;5014639;28;20531;-75
2021/05/12 06:22:29;;;;;;;15.50;14.63;;;13.20;99.90;;;;;;5014302;28;20457;-74
2021/05/12 06:24:55;;;;;;;14.17;13.20;;;13.20;99.90;;;;;;5014374;28;20449;-75
2021/05/12 06:27:21;;;;;;;16.83;15.83;;;13.30;99.90;;;;;;5014422;28;21077;-74
2021/05/12 06:29:47;;;;;;;15.30;14.50;;;13.30;99.90;;;;;;5026541;28;20501;-74
2021/05/12 06:32:15;;;;;;;14.70;14.00;;;13.30;99.90;;;;;;5013958;28;20493;-74
2021/05/12 06:34:41;;;;;;;14.47;13.67;;;13.30;99.90;;;;;;5013705;28;20977;-74
2021/05/12 06:37:08;;;;;;;13.87;13.20;;;13.20;99.90;;;;;;5014177;28;20524;-73
2021/05/12 06:39:35;;;;;;;14.70;13.40;;;13.20;99.90;;;;;;5014238;28;20461;-74
2021/05/12 06:42:01;;;;;;;13.57;12.77;;;13.10;99.90;;;;;;5016922;28;20833;-73
2021/05/12 06:44:27;;;;;;;13.30;12.70;;;13.20;99.90;;;;;;5033616;28;20817;-73
2021/05/12 06:46:54;;;;;;;13.07;12.43;;;13.20;99.90;;;;;;5033547;28;20546;-73
2021/05/12 06:49:20;;;;;;;14.83;13.70;;;13.10;99.90;;;;;;5033519;28;20464;-72
2021/05/12 06:51:46;;;;;;;14.27;13.57;;;13.10;99.90;;;;;;5033491;28;20931;-72
2021/05/12 06:54:13;;;;;;;13.90;13.20;;;13.10;99.90;;;;;;5033486;28;20459;-72
2021/05/12 06:56:40;;;;;;;14.60;13.80;;;13.20;99.90;;;;;;5031679;28;20517;-72
2021/05/12 06:59:06;;;;;;;15.10;14.27;;;13.10;99.90;;;;;;5033290;28;20445;-72
2021/05/12 07:01:32;;;;;;;13.57;12.73;;;13.10;99.90;;;;;;5033139;28;20453;-72
2021/05/12 07:03:58;;;;;;;13.83;13.23;;;13.10;99.90;;;;;;5033101;28;20452;-72
2021/05/12 07:06:24;;;;;;;13.03;12.33;;;13.20;99.90;;;;;;5033020;28;20491;-72
2021/05/12 07:08:51;;;;;;;14.03;13.23;;;13.30;99.90;;;;;;5033349;28;20463;-72
2021/05/12 07:11:17;;;;;;;13.43;12.73;;;13.30;99.90;;;;;;5033007;28;20449;-73
2021/05/12 07:13:45;;;;;;;14.13;13.30;;;13.30;99.90;;;;;;5033212;28;20449;-72
2021/05/12 07:16:11;;;;;;;14.13;13.20;;;13.20;99.90;;;;;;5032748;28;20445;-72
2021/05/12 07:18:37;;;;;;;14.00;13.30;;;13.30;99.90;;;;;;5033163;28;20962;-72
2021/05/12 07:21:04;;;;;;;14.33;13.57;;;13.30;99.90;;;;;;5032951;28;20449;-72
2021/05/12 07:23:30;;;;;;;14.37;13.77;;;13.40;99.90;;;;;;5032966;28;20453;-72
2021/05/12 07:25:56;;;;;;;14.57;13.80;;;13.40;99.90;;;;;;5032735;28;20998;-72
2021/05/12 07:28:23;;;;;;;13.63;13.03;;;13.40;99.90;;;;;;5032787;28;20808;-72
2021/05/12 07:30:51;;;;;;;14.03;13.23;;;13.30;99.90;;;;;;5032627;28;20469;-72
2021/05/12 07:33:17;;;;;;;14.57;13.80;;;13.30;99.90;;;;;;5032574;28;20496;-72
2021/05/12 07:35:43;;;;;;;14.03;13.27;;;13.40;99.90;;;;;;5032518;28;20514;-72
2021/05/12 07:38:10;;;;;;;14.47;13.47;;;13.50;99.90;;;;;;5032483;28;20457;-73
2021/05/12 07:40:36;;;;;;;13.63;12.93;;;13.40;99.90;;;;;;5032736;28;20910;-72
2021/05/12 07:43:06;;;;;;;12.77;12.27;;;13.50;99.90;;;;;;5032487;28;20804;-72
2021/05/12 07:45:35;;;;;;;13.83;12.93;;;13.40;99.90;;;;;;5032533;28;20507;-72
2021/05/12 07:48:02;;;;;;;13.40;12.63;;;13.30;99.90;;;;;;5032281;28;20457;-72
2021/05/12 07:50:29;;;;;;;12.97;12.37;;;13.10;99.90;;;;;;5032360;28;20452;-72
2021/05/12 07:52:55;;;;;;;13.27;12.67;;;13.20;99.90;;;;;;5032240;28;20441;-72
2021/05/12 07:55:21;;;;;;;14.17;13.47;;;13.10;99.90;;;;;;5032335;28;20460;-72
2021/05/12 07:57:47;;;;;;;12.90;12.30;;;13.00;99.90;;;;;;5032262;28;20452;-71
2021/05/12 08:00:15;;;;;;;13.07;12.27;;;13.10;99.90;;;;;;5032087;28;20507;-72
2021/05/12 08:02:41;;;;;;;12.80;12.20;;;13.10;99.90;;;;;;5032087;28;20449;-72
2021/05/12 08:05:10;;;;;;;13.13;12.43;;;13.10;99.90;;;;;;5033311;28;20452;-72
2021/05/12 08:07:37;;;;;;;11.23;10.73;;;13.10;99.90;;;;;;5035429;28;21028;-72
2021/05/12 08:10:04;;;;;;;14.43;13.70;;;13.20;99.90;;;;;;5035869;28;20533;-72
2021/05/12 08:12:30;;;;;;;13.40;12.70;;;13.30;99.90;;;;;;5033540;28;20938;-72
2021/05/12 08:14:56;;;;;;;13.17;12.37;;;13.10;99.90;;;;;;5031879;28;20453;-72
2021/05/12 08:17:22;;;;;;;13.77;13.07;;;13.00;99.90;;;;;;5031846;28;20445;-72
2021/05/12 08:19:49;;;;;;;13.90;13.23;;;12.90;99.90;;;;;;5032030;28;20457;-73
2021/05/12 08:22:16;;;;;;;12.80;12.20;;;12.90;99.90;;;;;;5031733;28;20977;-72
2021/05/12 08:24:42;;;;;;;12.83;12.33;;;13.00;99.90;;;;;;5031654;28;20460;-72
2021/05/12 08:27:08;;;;;;;13.33;12.43;;;13.00;99.90;;;;;;5031635;28;20500;-72
2021/05/12 08:29:36;;;;;;;12.13;11.63;;;13.00;99.90;;;;;;5031770;28;20484;-72
2021/05/12 08:32:04;;;;;;;11.57;11.10;;;13.00;99.90;;;;;;5030790;28;20997;-73
2021/05/12 08:34:32;;;;;;;13.37;12.77;;;13.00;99.90;;;;;;5031596;28;20456;-73
2021/05/12 08:36:58;;;;;;;13.37;12.70;;;13.10;99.90;;;;;;5031600;28;20543;-72
2021/05/12 08:39:25;;;;;;;13.30;12.50;;;13.20;99.90;;;;;;5031306;28;20445;-72
2021/05/12 08:41:52;;;;;;;12.20;11.70;;;13.40;99.90;;;;;;5031440;28;20456;-72
2021/05/12 08:44:20;;;;;;;13.17;12.57;;;13.30;99.90;;;;;;5031427;28;20456;-72
2021/05/12 08:46:49;;;;;;;12.70;11.43;;;13.30;99.90;;;;;;5031132;28;20485;-72
2021/05/12 08:49:17;;;;;;;11.30;10.70;;;13.30;99.90;;;;;;5031227;28;20449;-72
2021/05/12 08:51:43;;;;;;;12.27;11.70;;;13.40;99.90;;;;;;5031152;28;20963;-72
2021/05/12 08:54:10;;;;;;;13.53;12.53;;;13.40;99.90;;;;;;5031167;28;20456;-72
2021/05/12 08:56:38;;;;;;;13.13;12.43;;;13.50;99.90;;;;;;5029454;28;20445;-73
2021/05/12 08:59:04;;;;;;;12.07;11.57;;;13.50;99.90;;;;;;5031150;28;20457;-72
2021/05/12 09:01:32;;;;;;;12.40;11.73;;;13.50;99.90;;;;;;5030906;28;20471;-72
2021/05/12 09:04:00;;;;;;;12.87;12.33;;;13.50;99.90;;;;;;5030573;28;20511;-73
2021/05/12 09:06:26;;;;;;;12.40;11.63;;;13.40;99.90;;;;;;5030281;28;20485;-72
2021/05/12 09:08:53;;;;;;;12.90;12.20;;;13.80;99.90;;;;;;5030698;28;20449;-72
2021/05/12 09:11:19;;;;;;;12.33;11.70;;;13.90;99.90;;;;;;5030732;28;20457;-73
2021/05/12 09:13:48;;;;;;;12.90;12.10;;;14.10;99.90;;;;;;5030410;28;20452;-73
2021/05/12 09:16:16;;;;;;;12.23;11.63;;;13.90;99.90;;;;;;5030475;28;20449;-72
2021/05/12 09:18:43;;;;;;;11.77;11.17;;;14.10;99.90;;;;;;5030455;28;20855;-73
2021/05/12 09:21:09;;;;;;;14.17;13.03;;;14.00;99.90;;;;;;5030483;28;20488;-73
2021/05/12 09:23:39;;;;;;;12.03;11.47;;;14.10;99.90;;;;;;5030836;28;20835;-73
2021/05/12 09:26:11;;;;;;;13.00;12.30;;;14.10;99.90;;;;;;5030604;28;20516;-74
2021/05/12 09:28:38;;;;;;;13.13;12.23;;;14.10;99.90;;;;;;5030737;28;20457;-73
2021/05/12 09:31:11;;;;;;;15.00;14.10;;;14.10;99.90;;;;;;5030553;28;20469;-73
2021/05/12 09:33:40;;;;;;;14.17;13.27;;;14.10;99.90;;;;;;5030748;28;20441;-73
2021/05/12 09:36:07;;;;;;;14.03;13.23;;;14.10;99.90;;;;;;5030836;28;20441;-72
2021/05/12 09:38:34;;;;;;;12.93;12.10;;;14.20;99.90;;;;;;5030664;28;20441;-72
2021/05/12 09:41:07;;;;;;;13.37;12.40;;;14.10;99.90;;;;;;5030624;28;20445;-72
2021/05/12 09:43:35;;;;;;;11.80;11.07;;;14.10;99.90;;;;;;5029621;28;20475;-72
2021/05/12 09:46:20;;;;;;;12.53;11.43;;;14.10;99.90;;;;;;5030296;28;20499;-71
2021/05/12 09:48:48;;;;;;;12.30;11.80;;;14.30;99.90;;;;;;5030275;28;20526;-72
2021/05/12 09:51:19;;;;;;;13.10;12.47;;;14.50;99.90;;;;;;5030163;28;20646;-70
2021/05/12 09:54:05;;;;;;;13.57;12.90;;;14.50;99.90;;;;;;5030219;28;20464;-73
2021/05/12 09:56:42;;;;;;;12.80;12.00;;;14.60;99.90;;;;;;5030223;28;20485;-71
2021/05/12 09:59:11;;;;;;;12.90;12.30;;;14.80;99.90;;;;;;5030383;28;20453;-73
2021/05/12 10:01:46;;;;;;;14.37;13.60;;;14.70;99.90;;;;;;5030416;28;20496;-72
2021/05/12 10:04:42;;;;;;;13.83;13.13;;;14.70;99.90;;;;;;5030103;28;20448;-71
2021/05/12 10:07:20;;;;;;;12.23;11.53;;;14.80;99.90;;;;;;5029962;28;20888;-71
2021/05/12 10:09:49;;;;;;;12.57;11.70;;;14.70;99.90;;;;;;5030076;28;20555;-70
2021/05/12 10:12:17;;;;;;;12.10;11.10;;;14.70;99.90;;;;;;5029846;28;20445;-71
2021/05/12 10:14:46;;;;;;;12.10;11.30;;;14.50;99.90;;;;;;5029816;28;20548;-71
2021/05/12 10:17:14;;;;;;;12.03;11.50;;;14.70;99.90;;;;;;5029757;28;20981;-70
2021/05/12 10:19:41;;;;;;;11.83;11.23;;;14.60;99.90;;;;;;5030001;28;20495;-73
2021/05/12 10:22:09;;;;;;;11.63;10.93;;;14.70;99.90;;;;;;5030124;28;20453;-72
2021/05/12 10:24:37;;;;;;;13.37;12.47;;;15.00;99.90;;;;;;5030313;28;20511;-72
2021/05/12 10:27:09;;;;;;;12.97;11.80;;;15.00;99.90;;;;;;5030111;28;20481;-72
2021/05/12 10:29:37;;;;;;;12.23;11.47;;;14.90;99.90;;;;;;5029996;28;20449;-72
2021/05/12 10:32:24;;;;;;;12.73;11.77;;;15.00;99.90;;;;;;5029869;28;20476;-72
2021/05/12 10:34:59;;;;;;;12.67;12.07;;;15.10;99.90;;;;;;5030043;28;20453;-72
2021/05/12 10:37:28;;;;;;;12.53;11.60;;;15.30;99.90;;;;;;5029781;28;20452;-72
2021/05/12 10:40:00;;;;;;;11.73;10.83;;;15.30;99.90;;;;;;5030107;28;20456;-72
2021/05/12 10:42:56;;;;;;;12.73;11.73;;;15.60;99.90;;;;;;5030083;28;20460;-72
2021/05/12 10:45:55;;;;;;;11.33;10.53;;;15.80;99.90;;;;;;5029938;28;20816;-72
2021/05/12 10:48:34;;;;;;;13.77;12.60;;;15.80;99.90;;;;;;5030015;28;20460;-72
2021/05/12 10:51:01;;;;;;;12.17;11.60;;;15.80;99.90;;;;;;5029734;28;20455;-72
2021/05/12 10:53:29;;;;;;;12.20;11.70;;;15.70;99.90;;;;;;5029692;28;20475;-72
2021/05/12 10:56:16;;;;;;;12.87;12.10;;;15.50;99.90;;;;;;5032728;28;20444;-72
2021/05/12 10:58:59;;;;;;;14.30;13.07;;;15.60;99.90;;;;;;5027216;28;20463;-72
2021/05/12 11:01:26;;;;;;;12.77;11.73;;;15.30;99.90;;;;;;5033066;28;20452;-72
2021/05/12 11:04:16;;;;;;;12.93;12.20;;;15.10;99.90;;;;;;5033345;28;20449;-72
2021/05/12 11:07:04;;;;;;;12.37;11.80;;;14.90;99.90;;;;;;5033012;28;20492;-72
2021/05/12 11:09:47;;;;;;;11.43;10.73;;;14.80;99.90;;;;;;5027130;28;20809;-72
2021/05/12 11:12:17;;;;;;;11.43;10.83;;;14.90;99.90;;;;;;5032735;28;20957;-71
2021/05/12 11:14:55;;;;;;;12.87;11.97;;;14.80;99.90;;;;;;5033125;28;20456;-72
2021/05/12 11:17:23;;;;;;;13.10;12.30;;;14.70;99.90;;;;;;5033242;28;20503;-72
2021/05/12 11:19:52;;;;;;;12.33;11.40;;;14.70;99.90;;;;;;5033147;28;20810;-72
2021/05/12 11:22:37;;;;;;;13.10;12.43;;;14.90;99.90;;;;;;5032956;28;20507;-72
2021/05/12 11:25:08;;;;;;;11.97;11.37;;;15.10;99.90;;;;;;5032774;28;20453;-72
2021/05/12 11:28:00;;;;;;;12.27;11.57;;;15.10;99.90;;;;;;5032814;28;20495;-72
2021/05/12 11:33:19;;;;;;;13.20;12.00;;;15.30;99.90;;;;;;5032494;28;20835;-72
2021/05/12 11:35:47;;;;;;;12.13;11.33;;;15.60;99.90;;;;;;5032598;28;20463;-72
2021/05/12 11:38:17;;;;;;;13.30;11.90;;;15.70;99.90;;;;;;5032406;28;20449;-72
2021/05/12 11:40:58;;;;;;;11.67;11.10;;;15.90;99.90;;;;;;5032596;28;20460;-71
2021/05/12 11:43:32;;;;;;;11.23;10.73;;;16.20;99.90;;;;;;5032515;28;20943;-72
2021/05/12 11:46:06;;;;;;;12.47;11.87;;;16.20;99.90;;;;;;5032253;28;20449;-72
2021/05/12 11:48:36;;;;;;;12.27;11.57;;;16.40;99.90;;;;;;5032651;28;20559;-72
2021/05/12 11:51:05;;;;;;;12.07;11.47;;;16.90;99.90;;;;;;5032392;28;20445;-72
2021/05/12 11:53:34;;;;;;;12.70;12.10;;;17.20;99.90;;;;;;5032236;28;20441;-72
2021/05/12 11:56:00;;;;;;;12.97;12.17;;;17.60;99.90;;;;;;5032414;28;20449;-69
2021/05/12 11:58:27;;;;;;;12.37;11.60;;;18.00;99.90;;;;;;5032175;28;20453;-70
2021/05/12 12:00:56;;;;;;;13.10;12.10;;;18.40;99.90;;;;;;5032131;28;20452;-70
2021/05/12 12:03:24;;;;;;;12.83;12.23;;;18.60;99.90;;;;;;5032235;28;20507;-72
2021/05/12 12:06:02;;;;;;;13.87;12.63;;;19.00;99.90;;;;;;5031017;28;20810;-72
2021/05/12 12:08:30;;;;;;;11.83;11.03;;;18.70;99.70;;;;;;5031907;28;20527;-72
2021/05/12 12:11:13;;;;;;;13.60;12.87;;;18.90;99.90;;;;;;5031869;28;20818;-73
2021/05/12 12:13:40;;;;;;;12.73;12.13;;;19.20;99.70;;;;;;5031840;28;20782;-72
2021/05/12 12:16:09;;;;;;;12.10;11.60;;;19.10;98.70;;;;;;5031764;28;20955;-72
2021/05/12 12:18:37;;;;;;;12.63;11.80;;;19.30;98.80;;;;;;5032052;28;20839;-70
2021/05/12 12:21:04;;;;;;;12.00;11.50;;;18.90;99.30;;;;;;5029929;28;20441;-71
2021/05/12 12:23:33;;;;;;;11.47;11.07;;;18.70;99.70;;;;;;5031630;28;20475;-71
2021/05/12 12:26:14;;;;;;;12.67;12.10;;;18.80;99.00;;;;;;5031616;28;20519;-71
2021/05/12 12:28:42;;;;;;;12.37;11.73;;;18.80;97.70;;;;;;5031460;28;20453;-72
2021/05/12 12:31:12;;;;;;;12.50;11.77;;;19.10;98.10;;;;;;5031270;28;20469;-71
2021/05/12 12:33:38;;;;;;;14.47;13.37;;;18.90;97.70;;;;;;5031499;28;20453;-71
2021/05/12 12:36:06;;;;;;;13.47;12.57;;;18.80;98.30;;;;;;5031595;28;20453;-71
2021/05/12 12:38:34;;;;;;;13.07;12.27;;;18.60;99.10;;;;;;5031161;28;20943;-71
2021/05/12 12:41:01;;;;;;;14.20;13.23;;;18.70;99.20;;;;;;5031180;28;20561;-71
2021/05/12 12:43:38;;;;;;;12.83;11.97;;;18.30;99.00;;;;;;5031132;28;20832;-71
2021/05/12 12:46:05;;;;;;;12.80;12.00;;;17.80;99.20;;;;;;5031213;28;20460;-71
2021/05/12 12:48:40;;;;;;;12.60;12.00;;;17.40;99.90;;;;;;5031749;28;21019;-71
2021/05/12 12:51:06;;;;;;;14.70;13.17;;;17.40;99.90;;;;;;5033912;28;20536;-70
2021/05/12 12:53:33;;;;;;;13.40;12.67;;;17.50;99.90;;;;;;5034068;28;20441;-70
2021/05/12 12:56:09;;;;;;;13.57;12.97;;;17.40;99.90;;;;;;5032957;28;20480;-70
2021/05/12 12:58:36;;;;;;;13.10;12.43;;;17.30;99.90;;;;;;5031291;28;20483;-71
2021/05/12 13:01:02;;;;;;;13.03;12.00;;;17.30;99.90;;;;;;5030983;28;20445;-71
2021/05/12 13:03:29;;;;;;;13.07;12.33;;;17.40;99.90;;;;;;5030798;28;20457;-71
2021/05/12 13:05:58;;;;;;;13.10;12.40;;;17.60;99.90;;;;;;5030471;28;20958;-71
2021/05/12 13:08:26;;;;;;;14.37;13.57;;;17.70;99.90;;;;;;5030789;28;20538;-71
2021/05/12 13:10:54;;;;;;;14.07;13.10;;;17.80;99.90;;;;;;5031104;28;20495;-72
2021/05/12 13:13:29;;;;;;;13.23;11.90;;;18.00;99.90;;;;;;5030861;28;20803;-71
2021/05/12 13:15:57;;;;;;;13.03;12.33;;;17.90;99.90;;;;;;5030744;28;20461;-71
2021/05/12 13:18:25;;;;;;;12.53;11.83;;;18.20;99.90;;;;;;5030746;28;20868;-71
2021/05/12 13:20:52;;;;;;;13.20;12.20;;;17.90;99.90;;;;;;5030634;28;20449;-71
2021/05/12 13:23:24;;;;;;;13.33;12.43;;;18.00;99.90;;;;;;5030595;28;20445;-71
2021/05/12 13:25:51;;;;;;;11.57;10.97;;;18.40;99.90;;;;;;5030839;28;20445;-71
2021/05/12 13:28:21;;;;;;;13.70;12.70;;;18.30;99.70;;;;;;5030519;28;20489;-71
2021/05/12 13:30:48;;;;;;;14.40;13.47;;;18.60;99.70;;;;;;5030297;28;20896;-71
2021/05/12 13:33:15;;;;;;;13.23;12.63;;;19.00;99.10;;;;;;5030100;28;20749;-71
2021/05/12 13:35:41;;;;;;;14.47;13.37;;;19.40;98.20;;;;;;5030463;28;20453;-71
2021/05/12 13:38:08;;;;;;;13.23;12.50;;;18.90;98.70;;;;;;5030748;28;20452;-71
2021/05/12 13:40:34;;;;;;;13.67;12.60;;;18.60;99.90;;;;;;5030645;28;20449;-72
2021/05/12 13:43:02;;;;;;;12.40;11.70;;;18.50;99.90;;;;;;5030231;28;20815;-71
2021/05/12 13:45:29;;;;;;;14.03;13.30;;;18.50;99.90;;;;;;5030314;28;20453;-71
2021/05/12 13:47:55;;;;;;;13.87;13.07;;;18.50;99.90;;;;;;5030445;28;20489;-71
2021/05/12 13:50:28;;;;;;;13.13;12.43;;;18.60;99.90;;;;;;5030590;28;20457;-71
2021/05/12 13:53:00;;;;;;;13.30;12.53;;;18.90;99.90;;;;;;5030442;28;20493;-71
2021/05/12 13:55:30;;;;;;;13.40;12.77;;;19.30;99.90;;;;;;5030235;28;20453;-71
2021/05/12 14:01:35;;;;;;;13.40;12.90;;;19.30;98.40;;;;;;5030113;28;20479;-72